Time;durP1;ratioP1;P1;durP2;ratioP2;P2;SDS_P1;SDS_P2;PMS_P1;PMS_P2;Temp;Humidity;BMP_temperature;BMP_pressure;BME280_temperature;BME280_humidity;BME280_pressure;Samples;Min_cycle;Max_cycle;Signal;HPM_P1;HPM_P2
2022/06/20 00:02:18;;;;;;;11.60;2.58;;;;;;;14.34;75.48;101278.78;4972771;28;20074;-79
2022/06/20 00:04:44;;;;;;;10.55;2.88;;;;;;;14.30;75.22;101277.38;4962954;28;20562;-79
2022/06/20 00:07:11;;;;;;;12.60;3.30;;;;;;;14.27;74.99;101273.13;4964781;28;20131;-79
2022/06/20 00:09:37;;;;;;;11.27;2.70;;;;;;;14.24;74.64;101266.22;4974968;28;20050;-79
2022/06/20 00:12:04;;;;;;;10.85;3.15;;;;;;;14.22;75.22;101267.31;4966036;28;20490;-79
2022/06/20 00:14:29;;;;;;;11.68;2.60;;;;;;;14.20;74.71;101279.97;4965836;28;20062;-79
2022/06/20 00:16:55;;;;;;;9.02;2.55;;;;;;;14.15;74.72;101290.22;4973702;28;20022;-79
2022/06/20 00:19:20;;;;;;;8.80;2.95;;;;;;;14.15;74.39;101287.53;4970017;28;20480;-79
2022/06/20 00:21:46;;;;;;;6.82;2.30;;;;;;;14.15;76.11;101303.56;4969654;28;20035;-79
2022/06/20 00:24:11;;;;;;;10.23;3.13;;;;;;;14.13;75.76;101318.88;4969948;28;20031;-79
2022/06/20 00:26:39;;;;;;;13.70;2.83;;;;;;;14.10;75.23;101336.00;4969721;28;20380;-79
2022/06/20 00:29:08;;;;;;;9.55;2.88;;;;;;;14.11;75.28;101347.56;4974109;28;20089;-79
2022/06/20 00:31:35;;;;;;;10.37;3.00;;;;;;;14.12;74.29;101341.22;4972777;28;20402;-79
2022/06/20 00:34:00;;;;;;;10.25;2.70;;;;;;;14.09;74.64;101358.38;4973053;28;20027;-79
2022/06/20 00:36:26;;;;;;;9.32;2.42;;;;;;;14.12;74.91;101374.13;4958370;28;20109;-79
2022/06/20 00:38:55;;;;;;;7.68;2.03;;;;;;;14.09;74.43;101401.09;4963808;28;20031;-78
2022/06/20 00:41:25;;;;;;;12.70;3.10;;;;;;;14.07;75.41;101401.22;4971875;28;20027;-79
2022/06/20 00:43:53;;;;;;;9.18;2.88;;;;;;;14.11;76.17;101431.19;4969304;28;20038;-79
2022/06/20 00:46:35;;;;;;;7.32;2.55;;;;;;;14.13;74.17;101480.00;4968049;28;20507;-79
2022/06/20 00:49:12;;;;;;;10.82;2.58;;;;;;;14.12;75.78;101502.38;4966879;28;20023;-79
2022/06/20 00:51:46;;;;;;;12.85;3.55;;;;;;;14.09;75.51;101531.13;4973715;28;20081;-79
2022/06/20 00:54:45;;;;;;;9.68;3.05;;;;;;;14.13;75.25;101559.31;4974514;28;20038;-79
2022/06/20 00:57:19;;;;;;;7.00;2.45;;;;;;;14.12;76.56;101531.75;4969296;28;20133;-79
2022/06/20 00:59:50;;;;;;;10.15;2.63;;;;;;;14.12;77.11;101506.84;4974050;28;20034;-79
2022/06/20 01:02:25;;;;;;;12.85;3.00;;;;;;;14.09;77.22;101486.59;4966517;28;20023;-79
2022/06/20 01:04:57;;;;;;;12.15;2.70;;;;;;;14.14;75.30;101465.69;5059421;23;20056;-78
2022/06/20 01:07:28;;;;;;;13.93;2.92;;;;;;;14.11;78.15;101463.25;4979506;28;20030;-78
2022/06/20 01:09:58;;;;;;;11.85;2.83;;;;;;;14.13;77.11;101458.63;5000324;28;20033;-79
2022/06/20 01:12:26;;;;;;;9.40;2.65;;;;;;;14.15;77.34;101434.47;5006034;28;20038;-78
2022/06/20 01:14:52;;;;;;;13.13;3.28;;;;;;;14.15;77.57;101427.28;5006403;28;20040;-78
2022/06/20 01:17:37;;;;;;;11.48;2.55;;;;;;;14.16;77.72;101430.81;4999378;28;20023;-78
2022/06/20 01:20:27;;;;;;;11.60;2.75;;;;;;;14.16;76.88;101418.31;5009220;28;20172;-78
2022/06/20 01:23:04;;;;;;;9.88;2.78;;;;;;;14.18;76.35;101399.47;5004841;28;20390;-78
2022/06/20 01:25:57;;;;;;;14.07;3.13;;;;;;;14.19;77.03;101394.00;4993951;28;20059;-77
2022/06/20 01:28:27;;;;;;;9.55;2.60;;;;;;;14.05;76.60;101363.13;5007346;28;20037;-78
2022/06/20 01:30:52;;;;;;;10.93;2.83;;;;;;;14.16;76.40;101375.56;5011134;28;20022;-77
2022/06/20 01:33:20;;;;;;;11.15;2.53;;;;;;;14.19;76.59;101380.66;5000719;28;20509;-78
2022/06/20 01:38:37;;;;;;;10.43;2.72;;;;;;;14.09;76.94;101362.84;5005605;28;20052;-78
2022/06/20 01:43:50;;;;;;;12.90;2.88;;;;;;;14.09;76.82;101358.38;5009237;28;20768;-78
2022/06/20 01:46:16;;;;;;;13.05;2.97;;;;;;;14.05;76.66;101348.91;5005482;28;20026;-78
2022/06/20 01:48:46;;;;;;;7.93;2.60;;;;;;;14.02;77.28;101344.66;5006056;28;20466;-78
2022/06/20 01:51:24;;;;;;;12.73;3.13;;;;;;;14.03;77.14;101342.84;5005411;28;20462;-78
2022/06/20 01:53:53;;;;;;;11.77;3.05;;;;;;;13.91;77.28;101330.53;5008952;28;20038;-79
2022/06/20 01:56:21;;;;;;;14.05;2.50;;;;;;;13.95;77.91;101345.28;4998379;28;20030;-78
2022/06/20 01:58:51;;;;;;;11.82;2.63;;;;;;;13.95;77.15;101342.63;5012118;28;20109;-78
2022/06/20 02:01:16;;;;;;;8.90;2.55;;;;;;;13.87;77.38;101336.09;4999714;28;20022;-78
2022/06/20 02:03:44;;;;;;;12.93;2.72;;;;;;;13.88;76.72;101336.94;4995903;28;20057;-78
2022/06/20 02:06:12;;;;;;;14.55;3.63;;;;;;;13.80;77.39;101315.38;4982664;28;20045;-78
2022/06/20 02:08:41;;;;;;;12.60;3.00;;;;;;;13.74;77.64;101316.75;4996705;28;20022;-78
2022/06/20 02:11:12;;;;;;;12.23;3.22;;;;;;;13.74;78.07;101316.75;4994928;28;20106;-79
2022/06/20 02:13:46;;;;;;;10.18;2.63;;;;;;;13.73;77.18;101315.03;4997064;28;20026;-78
2022/06/20 02:16:16;;;;;;;12.70;2.53;;;;;;;13.68;77.23;101304.72;4993564;28;20037;-78
2022/06/20 02:18:44;;;;;;;14.55;2.35;;;;;;;13.63;76.74;101296.25;4985544;28;20023;-79
2022/06/20 02:21:18;;;;;;;7.95;2.58;;;;;;;13.63;76.36;101290.06;4978675;28;20030;-79
2022/06/20 02:23:48;;;;;;;12.40;2.30;;;;;;;13.61;76.66;101287.53;4991564;28;20042;-79
2022/06/20 02:26:16;;;;;;;9.30;2.30;;;;;;;13.59;77.28;101281.47;4985522;28;20023;-79
2022/06/20 02:29:20;;;;;;;7.32;2.40;;;;;;;13.65;76.57;101290.78;4990455;28;20037;-79
2022/06/20 02:31:46;;;;;;;15.65;2.63;;;;;;;13.58;76.43;101289.59;4974928;28;20125;-78
2022/06/20 02:34:11;;;;;;;9.55;2.58;;;;;;;13.53;77.05;101291.81;4983104;28;20026;-79
2022/06/20 02:36:36;;;;;;;11.52;2.67;;;;;;;13.49;76.83;101288.56;4978736;28;20501;-78
2022/06/20 02:39:03;;;;;;;10.43;2.70;;;;;;;13.45;77.72;101289.75;4995998;28;20089;-79
2022/06/20 02:41:30;;;;;;;5.00;2.15;;;;;;;13.48;77.68;101286.84;4996084;28;20523;-78
2022/06/20 02:44:04;;;;;;;11.68;2.53;;;;;;;13.46;77.03;101286.97;4978627;28;20428;-76
2022/06/20 02:46:31;;;;;;;12.88;2.60;;;;;;;13.46;75.92;101284.31;4982751;28;20372;-76
2022/06/20 02:48:59;;;;;;;10.77;2.40;;;;;;;13.38;75.90;101269.91;4992105;28;20467;-77
2022/06/20 02:51:32;;;;;;;9.95;2.58;;;;;;;13.42;77.18;101274.88;4989168;28;20035;-77
2022/06/20 02:54:01;;;;;;;9.02;2.17;;;;;;;13.41;76.84;101265.16;4972366;28;20476;-77
2022/06/20 02:56:33;;;;;;;11.63;2.60;;;;;;;13.42;75.80;101249.97;4995623;28;20034;-77
2022/06/20 02:59:11;;;;;;;13.00;2.50;;;;;;;13.37;75.93;101245.00;4992370;28;20034;-78
2022/06/20 03:01:52;;;;;;;7.88;2.25;;;;;;;13.37;74.82;101234.34;4971070;28;20030;-77
2022/06/20 03:04:20;;;;;;;7.60;2.03;;;;;;;13.32;75.31;101233.88;4991868;28;20046;-77
2022/06/20 03:06:59;;;;;;;8.75;2.20;;;;;;;13.29;75.22;101242.13;4995650;28;20368;-77
2022/06/20 03:09:29;;;;;;;9.95;2.50;;;;;;;13.29;75.99;101255.47;4992081;28;20431;-77
2022/06/20 03:11:54;;;;;;;10.75;2.53;;;;;;;13.28;75.91;101251.09;4969657;28;20129;-77
2022/06/20 03:14:21;;;;;;;6.35;2.17;;;;;;;13.25;76.29;101254.00;4995072;28;20108;-77
2022/06/20 03:16:47;;;;;;;15.65;3.03;;;;;;;13.24;75.23;101255.84;4995177;28;20026;-77
2022/06/20 03:19:19;;;;;;;8.60;2.42;;;;;;;13.23;75.47;101261.28;4995348;28;20045;-77
2022/06/20 03:21:47;;;;;;;9.07;2.20;;;;;;;13.22;76.63;101264.91;4974447;28;20069;-78
2022/06/20 03:24:19;;;;;;;6.38;2.10;;;;;;;13.26;76.89;101271.72;4984240;28;20027;-77
2022/06/20 03:26:44;;;;;;;7.68;2.20;;;;;;;13.23;76.50;101286.13;4990638;28;20102;-77
2022/06/20 03:29:15;;;;;;;10.55;2.67;;;;;;;13.23;76.28;101278.13;4996137;28;20038;-77
2022/06/20 03:31:41;;;;;;;10.65;2.40;;;;;;;13.24;76.14;101268.31;4979622;28;20472;-77
2022/06/20 03:34:07;;;;;;;7.43;2.20;;;;;;;13.23;76.42;101271.97;4988656;28;20031;-77
2022/06/20 03:36:34;;;;;;;8.20;2.15;;;;;;;13.15;76.18;101283.25;4962042;28;20030;-77
2022/06/20 03:39:00;;;;;;;4.50;2.20;;;;;;;13.22;76.19;101296.94;4992443;28;20030;-77
2022/06/20 03:41:26;;;;;;;8.52;2.00;;;;;;;13.19;75.91;101308.72;4995524;28;20504;-77
2022/06/20 03:44:03;;;;;;;9.90;2.35;;;;;;;13.21;75.78;101321.91;4987424;28;20438;-77
2022/06/20 03:46:49;;;;;;;8.15;2.17;;;;;;;13.27;76.43;101329.41;4973173;28;20042;-77
2022/06/20 03:49:26;;;;;;;6.60;2.05;;;;;;;13.23;76.35;101338.66;4988568;28;20027;-77
2022/06/20 03:52:01;;;;;;;7.90;1.90;;;;;;;13.24;76.36;101338.53;4979406;28;20391;-77
2022/06/20 03:54:41;;;;;;;8.30;2.00;;;;;;;13.23;76.29;101341.31;4995715;28;20042;-77
2022/06/20 03:57:23;;;;;;;6.25;1.77;;;;;;;13.28;76.69;101349.78;4990028;28;20030;-77
2022/06/20 03:59:54;;;;;;;11.63;2.28;;;;;;;13.26;77.58;101349.91;4996021;28;20369;-77
2022/06/20 04:02:28;;;;;;;7.57;2.63;;;;;;;13.27;77.32;101348.09;4982556;28;20088;-77
2022/06/20 04:05:03;;;;;;;6.93;2.28;;;;;;;13.31;77.06;101349.56;4994790;28;20429;-77
2022/06/20 04:07:59;;;;;;;7.35;2.20;;;;;;;13.35;76.68;101355.50;4991102;28;20058;-77
2022/06/20 04:11:01;;;;;;;11.38;2.10;;;;;;;13.38;77.22;101358.78;4994037;28;20479;-77
2022/06/20 04:13:53;;;;;;;10.57;2.65;;;;;;;13.44;77.07;101358.31;4986936;28;20030;-77
2022/06/20 04:16:28;;;;;;;6.78;2.20;;;;;;;13.45;77.76;101359.97;4984089;28;20109;-77
2022/06/20 04:19:35;;;;;;;8.95;2.45;;;;;;;13.45;78.32;101365.31;4989488;28;20030;-77
2022/06/20 04:22:17;;;;;;;9.73;2.40;;;;;;;13.51;77.67;101375.50;4972409;28;20495;-77
2022/06/20 04:24:45;;;;;;;12.07;2.42;;;;;;;13.53;78.25;101375.38;4966417;28;20045;-77
2022/06/20 04:27:22;;;;;;;7.80;2.53;;;;;;;13.53;78.32;101378.06;4978549;28;20105;-77
2022/06/20 04:29:53;;;;;;;13.63;2.70;;;;;;;13.54;79.40;101376.22;4987642;28;20065;-77
2022/06/20 04:32:36;;;;;;;11.27;3.20;;;;;;;13.58;79.31;101385.69;4993838;28;20041;-77
2022/06/20 04:35:33;;;;;;;10.20;2.72;;;;;;;13.60;79.17;101387.25;4970875;28;20034;-78
2022/06/20 04:38:04;;;;;;;14.20;2.70;;;;;;;13.58;79.67;101386.53;4990050;28;20375;-77
2022/06/20 04:40:39;;;;;;;10.35;2.70;;;;;;;13.60;79.54;101383.75;4984645;28;20042;-77
2022/06/20 04:43:15;;;;;;;9.57;2.50;;;;;;;13.63;79.07;101387.00;4993006;28;20037;-77
2022/06/20 04:45:54;;;;;;;10.27;2.67;;;;;;;13.66;79.31;101391.25;4976211;28;20042;-77
2022/06/20 04:48:23;;;;;;;8.70;2.33;;;;;;;13.64;79.47;101390.53;4993469;28;20031;-77
2022/06/20 04:50:51;;;;;;;6.70;2.38;;;;;;;13.69;79.57;101401.69;4990474;28;20517;-78
2022/06/20 04:53:26;;;;;;;11.75;3.10;;;;;;;13.74;80.11;101404.84;4992626;28;20164;-78
2022/06/20 04:55:56;;;;;;;8.80;3.08;;;;;;;13.75;79.79;101411.00;4992546;28;20038;-79
2022/06/20 04:58:25;;;;;;;;;;;;;;;13.90;77.79;101403.59;4966794;28;20038;-78
2022/06/20 05:00:52;;;;;;;8.45;2.75;;;;;;;13.84;79.43;101402.28;4985619;28;20366;-78
2022/06/20 05:03:24;;;;;;;12.80;2.80;;;;;;;13.87;79.32;101404.66;4946610;28;1046874;-78
2022/06/20 05:05:52;;;;;;;11.15;2.70;;;;;;;13.91;79.92;101398.13;4990090;28;20038;-78
2022/06/20 05:08:28;;;;;;;4.57;2.45;;;;;;;13.97;79.60;101400.28;4989720;28;20483;-78
2022/06/20 05:11:01;;;;;;;8.57;2.55;;;;;;;14.02;79.68;101403.44;4994355;28;20030;-78
2022/06/20 05:13:38;;;;;;;7.93;2.38;;;;;;;14.04;79.85;101405.97;4975065;28;20037;-78
2022/06/20 05:16:16;;;;;;;12.30;2.88;;;;;;;14.08;79.58;101404.72;4992219;28;20034;-79
2022/06/20 05:18:44;;;;;;;11.35;3.10;;;;;;;14.07;79.81;101409.25;4984528;28;20376;-79
2022/06/20 05:21:29;;;;;;;12.77;2.93;;;;;;;14.13;78.72;101412.38;4994141;28;20022;-79
2022/06/20 05:23:58;;;;;;;10.55;2.55;;;;;;;14.16;79.24;101423.66;4993720;28;20030;-79
2022/06/20 05:26:31;;;;;;;9.40;2.17;;;;;;;14.19;78.58;101439.44;4991874;28;20074;-80
2022/06/20 05:29:01;;;;;;;10.95;2.60;;;;;;;14.19;79.23;101431.41;4976174;28;20445;-79
2022/06/20 05:31:45;;;;;;;9.45;2.47;;;;;;;14.23;78.12;101421.31;4976854;28;20022;-78
2022/06/20 05:34:50;;;;;;;8.50;2.30;;;;;;;14.28;77.37;101415.59;4971426;28;20061;-79
2022/06/20 05:37:49;;;;;;;12.32;2.40;;;;;;;14.29;77.30;101404.78;4994211;28;20084;-78
2022/06/20 05:40:19;;;;;;;;;;;;;;;14.37;76.45;101407.66;4984559;28;20018;-79
2022/06/20 05:42:44;;;;;;;6.43;2.17;;;;;;;14.30;76.39;101400.28;4997407;28;19920;-78
2022/06/20 05:45:19;;;;;;;7.38;2.10;;;;;;;14.31;76.41;101400.16;4998159;28;20034;-78
2022/06/20 05:47:50;;;;;;;6.25;2.10;;;;;;;14.28;77.44;101396.91;4980357;28;20027;-78
2022/06/20 05:50:31;;;;;;;9.65;2.40;;;;;;;14.36;77.29;101411.31;4987182;28;20053;-79
2022/06/20 05:52:59;;;;;;;6.95;2.50;;;;;;;14.34;77.40;101409.72;4997417;28;20371;-79
2022/06/20 05:55:31;;;;;;;7.15;2.78;;;;;;;14.35;76.98;101419.44;4998178;28;20037;-79
2022/06/20 05:57:57;;;;;;;7.75;2.28;;;;;;;14.34;76.56;101431.09;4993893;28;20042;-80
2022/06/20 06:00:28;;;;;;;7.78;2.03;;;;;;;14.33;76.07;101429.41;4990387;28;20033;-78
2022/06/20 06:03:09;;;;;;;8.80;2.17;;;;;;;14.37;75.59;101417.50;4994862;28;20025;-80
2022/06/20 06:05:49;;;;;;;6.50;2.22;;;;;;;14.39;75.80;101432.44;4982696;28;20093;-80
2022/06/20 06:08:29;;;;;;;10.60;2.75;;;;;;;14.41;75.88;101416.28;4983024;28;20391;-80
2022/06/20 06:11:10;;;;;;;7.70;2.15;;;;;;;14.46;76.89;101424.75;5002430;28;20030;-77
2022/06/20 06:13:46;;;;;;;6.18;2.03;;;;;;;14.54;77.06;101422.28;5004026;28;20030;-79
2022/06/20 06:19:05;;;;;;;8.77;2.33;;;;;;;14.64;75.99;101424.19;4988266;28;20449;-79
2022/06/20 06:21:33;;;;;;;5.40;2.28;;;;;;;14.73;75.36;101428.78;4978825;28;20426;-78
2022/06/20 06:23:59;;;;;;;5.30;1.88;;;;;;;14.79;74.74;101431.78;4977292;28;20022;-78
2022/06/20 06:26:24;;;;;;;8.75;3.00;;;;;;;14.85;75.38;101427.72;4993759;28;20073;-79
2022/06/20 06:28:51;;;;;;;5.88;2.17;;;;;;;14.87;75.66;101435.59;4995050;28;20070;-79
2022/06/20 06:31:20;;;;;;;8.35;2.60;;;;;;;14.89;75.83;101439.88;4990964;28;20049;-79
2022/06/20 06:33:50;;;;;;;6.35;2.30;;;;;;;14.96;74.76;101435.66;4988696;28;20183;-79
2022/06/20 06:36:30;;;;;;;10.57;2.53;;;;;;;15.03;74.10;101430.63;4980693;28;20053;-79
2022/06/20 06:39:15;;;;;;;8.50;2.20;;;;;;;15.09;74.27;101426.59;4996411;28;20041;-79
2022/06/20 06:41:46;;;;;;;7.93;2.13;;;;;;;15.21;72.76;101432.72;4988231;28;20093;-79
2022/06/20 06:44:24;;;;;;;7.97;2.35;;;;;;;15.35;72.56;101435.88;4991476;28;20058;-78
2022/06/20 06:46:52;;;;;;;8.05;2.67;;;;;;;15.59;72.20;101450.78;4991498;28;20105;-78
2022/06/20 06:49:40;;;;;;;6.17;2.20;;;;;;;15.80;72.50;101453.38;4990411;28;20085;-79
2022/06/20 06:52:18;;;;;;;5.30;1.93;;;;;;;16.06;71.11;101460.94;4994445;28;20294;-79
2022/06/20 06:55:20;;;;;;;8.85;2.38;;;;;;;16.25;70.36;101457.41;4989845;28;20273;-78
2022/06/20 06:57:51;;;;;;;6.10;2.08;;;;;;;16.49;69.01;101459.69;4991829;28;20038;-78
2022/06/20 07:00:23;;;;;;;7.30;1.88;;;;;;;16.78;67.21;101462.34;4977819;28;20038;-79
2022/06/20 07:02:55;;;;;;;8.50;2.13;;;;;;;17.07;65.70;101452.59;4990816;28;20046;-79
2022/06/20 07:05:37;;;;;;;6.63;2.22;;;;;;;17.31;66.00;101469.03;4995923;28;20494;-78
2022/06/20 07:08:13;;;;;;;8.25;2.13;;;;;;;17.30;65.73;101469.19;4984413;28;20034;-79
2022/06/20 07:11:03;;;;;;;4.25;1.85;;;;;;;17.26;64.82;101468.66;4992381;28;20035;-78
2022/06/20 07:14:10;;;;;;;9.85;2.22;;;;;;;17.31;65.88;101484.31;4984713;28;20035;-79
2022/06/20 07:16:57;;;;;;;8.02;1.80;;;;;;;17.18;64.22;101474.72;4994801;28;20050;-79
2022/06/20 07:19:24;;;;;;;5.55;2.20;;;;;;;17.09;63.38;101483.66;4989053;28;20057;-81
2022/06/20 07:21:51;;;;;;;3.75;1.85;;;;;;;17.24;62.91;101491.28;4988068;28;20420;-79
2022/06/20 07:24:26;;;;;;;9.65;2.25;;;;;;;17.50;63.20;101481.56;4995715;28;20027;-80
2022/06/20 07:26:58;;;;;;;5.57;1.70;;;;;;;17.65;61.35;101481.94;4995512;28;20036;-82
2022/06/20 07:29:40;;;;;;;5.15;2.15;;;;;;;17.99;63.42;101485.91;4996547;28;20030;-83
2022/06/20 07:32:11;;;;;;;5.90;2.20;;;;;;;18.35;61.16;101477.84;4976302;28;20033;-82
2022/06/20 07:34:47;;;;;;;8.50;2.10;;;;;;;18.77;61.00;101474.53;4976524;28;20081;-83
2022/06/20 07:37:18;;;;;;;5.97;2.08;;;;;;;19.03;58.10;101471.91;4978878;28;20057;-83
2022/06/20 07:40:04;;;;;;;5.75;1.98;;;;;;;19.39;59.25;101478.00;4991374;28;20030;-83
2022/06/20 07:42:34;;;;;;;8.35;2.08;;;;;;;19.52;57.43;101472.19;4994196;28;20045;-82
2022/06/20 07:45:14;;;;;;;7.53;1.80;;;;;;;19.68;55.54;101479.50;4966300;28;20559;-83
2022/06/20 07:47:49;;;;;;;6.22;1.63;;;;;;;19.63;55.51;101484.53;4984393;28;20030;-82
2022/06/20 07:50:19;;;;;;;4.22;1.52;;;;;;;19.85;53.06;101490.38;4984537;28;20058;-83
2022/06/20 07:53:14;;;;;;;4.32;1.80;;;;;;;20.17;53.08;101489.66;4995681;28;20089;-84
2022/06/20 07:55:44;;;;;;;8.23;2.10;;;;;;;20.48;49.08;101492.56;4968986;28;20046;-81
2022/06/20 07:58:15;;;;;;;4.93;1.98;;;;;;;20.86;51.16;101489.38;4979658;28;20505;-82
2022/06/20 08:00:48;;;;;;;6.30;1.50;;;;;;;21.07;48.39;101483.47;4995591;28;20433;-82
2022/06/20 08:03:33;;;;;;;7.32;1.95;;;;;;;21.55;50.12;101497.91;4991368;28;20030;-82
2022/06/20 08:06:34;;;;;;;6.63;1.88;;;;;;;21.61;50.05;101494.50;4974452;28;20026;-82
2022/06/20 08:09:38;;;;;;;7.20;1.95;;;;;;;21.50;50.12;101499.44;4978064;28;20504;-82
2022/06/20 08:12:15;;;;;;;7.65;2.60;;;;;;;21.21;49.89;101490.03;4998170;28;20030;-81
2022/06/20 08:14:53;;;;;;;5.30;1.90;;;;;;;21.06;50.17;101509.63;4992803;28;20061;-82
2022/06/20 08:17:18;;;;;;;6.72;2.10;;;;;;;20.83;49.08;101501.41;4989353;28;20042;-82
2022/06/20 08:19:45;;;;;;;8.15;2.08;;;;;;;20.72;48.20;101508.97;4994228;28;20024;-83
2022/06/20 08:22:16;;;;;;;6.35;1.98;;;;;;;20.49;48.60;101507.72;4994243;28;20026;-82
2022/06/20 08:24:48;;;;;;;6.57;2.13;;;;;;;20.48;48.89;101503.38;4988112;28;20088;-82
2022/06/20 08:27:22;;;;;;;5.30;1.90;;;;;;;20.30;49.40;101503.50;4994089;28;20043;-82
2022/06/20 08:29:55;;;;;;;4.60;2.17;;;;;;;20.21;49.55;101501.78;4983738;28;20031;-83
2022/06/20 08:32:38;;;;;;;8.20;2.03;;;;;;;20.65;49.98;101506.09;4994683;28;20030;-83
2022/06/20 08:35:33;;;;;;;6.50;2.10;;;;;;;21.12;48.48;101512.69;4977629;28;20033;-82
2022/06/20 08:38:08;;;;;;;6.80;1.92;;;;;;;21.44;45.13;101509.06;4987718;28;20085;-83
2022/06/20 08:40:44;;;;;;;4.57;1.70;;;;;;;21.46;44.93;101507.00;4973500;28;20094;-81
2022/06/20 08:43:22;;;;;;;4.45;1.85;;;;;;;21.41;45.58;101512.09;4985739;28;20490;-80
2022/06/20 08:46:08;;;;;;;7.15;2.28;;;;;;;21.43;46.97;101515.47;4984357;28;20027;-82
2022/06/20 08:48:48;;;;;;;6.82;2.40;;;;;;;21.37;46.09;101521.59;4989349;28;20050;-81
2022/06/20 08:52:08;;;;;;;8.73;2.63;;;;;;;21.52;47.58;101519.03;4990970;28;20116;-81
2022/06/20 08:54:49;;;;;;;8.57;2.53;;;;;;;21.37;46.25;101527.81;4988252;28;20038;-81
2022/06/20 08:57:42;;;;;;;7.65;2.30;;;;;;;21.52;46.36;101537.97;4991822;28;20537;-83
2022/06/20 09:00:24;;;;;;;6.60;2.60;;;;;;;21.57;46.41;101536.41;4985923;28;20050;-83
2022/06/20 09:03:02;;;;;;;4.57;1.90;;;;;;;21.96;42.42;101541.00;4993466;28;20041;-83
2022/06/20 09:06:00;;;;;;;6.80;2.13;;;;;;;22.39;44.36;101526.28;4988940;28;20042;-82
2022/06/20 09:08:54;;;;;;;7.23;2.00;;;;;;;22.89;42.85;101539.25;4968186;28;20034;-84
2022/06/20 09:11:48;;;;;;;8.15;2.50;;;;;;;23.21;43.75;101533.78;5000551;28;20034;-83
2022/06/20 09:14:26;;;;;;;5.72;2.10;;;;;;;23.05;41.10;101543.72;4989347;28;20104;-83
2022/06/20 09:17:18;;;;;;;5.55;2.03;;;;;;;22.98;42.70;101545.47;4976678;28;20039;-83
2022/06/20 09:19:59;;;;;;;6.72;2.30;;;;;;;22.71;41.37;101547.69;4993165;28;20054;-81
2022/06/20 09:22:36;;;;;;;5.32;2.03;;;;;;;22.75;40.97;101550.91;4994351;28;20026;-81
2022/06/20 09:25:44;;;;;;;5.85;2.28;;;;;;;22.59;43.51;101549.16;4986509;28;20053;-81
2022/06/20 09:28:44;;;;;;;6.22;2.20;;;;;;;22.60;43.12;101556.25;4983562;28;20459;-82
2022/06/20 09:31:33;;;;;;;4.93;2.03;;;;;;;22.87;41.56;101554.03;4977199;28;20034;-81
2022/06/20 09:34:27;;;;;;;4.15;1.95;;;;;;;23.39;38.52;101555.13;4994073;28;20064;-82
2022/06/20 09:37:18;;;;;;;3.92;1.95;;;;;;;23.71;41.23;101544.94;4990534;28;20509;-82
2022/06/20 09:40:08;;;;;;;4.90;1.88;;;;;;;23.53;37.30;101554.28;4959245;28;20399;-83
2022/06/20 09:43:02;;;;;;;6.10;1.83;;;;;;;23.71;37.69;101543.06;4988103;28;20515;-82
2022/06/20 09:45:41;;;;;;;5.13;1.90;;;;;;;24.14;37.41;101535.09;4994870;28;20037;-82
2022/06/20 09:48:39;;;;;;;5.70;2.17;;;;;;;24.42;37.23;101545.22;4994786;28;20038;-82
2022/06/20 09:51:22;;;;;;;9.07;2.55;;;;;;;24.82;37.64;101539.38;4983228;28;20084;-82
2022/06/20 09:54:10;;;;;;;6.63;2.22;;;;;;;24.78;37.02;101535.34;4994439;28;20397;-83
2022/06/20 09:56:38;;;;;;;6.50;2.30;;;;;;;24.88;35.70;101538.56;4977962;28;20030;-82
2022/06/20 09:59:22;;;;;;;5.63;2.30;;;;;;;24.89;36.11;101534.84;4997656;28;20033;-83
2022/06/20 10:01:54;;;;;;;6.25;2.38;;;;;;;25.04;35.70;101537.47;4985504;28;20035;-83
2022/06/20 10:04:20;;;;;;;7.70;3.00;;;;;;;24.98;35.78;101532.81;4974767;28;20137;-82
2022/06/20 10:06:54;;;;;;;5.33;2.33;;;;;;;25.32;36.67;101547.56;4976235;28;20471;-83
2022/06/20 10:09:26;;;;;;;6.15;2.30;;;;;;;25.55;35.76;101544.56;4974831;28;20383;-83
2022/06/20 10:12:00;;;;;;;6.68;2.80;;;;;;;25.26;35.42;101541.88;4976126;28;20034;-83
2022/06/20 10:14:29;;;;;;;7.93;2.63;;;;;;;25.47;35.33;101538.22;4969171;28;20027;-83
2022/06/20 10:17:13;;;;;;;7.43;2.50;;;;;;;25.48;36.53;101536.38;4981579;28;20023;-83
2022/06/20 10:19:45;;;;;;;9.45;2.75;;;;;;;25.66;35.59;101541.25;4976388;28;20022;-84
2022/06/20 10:22:13;;;;;;;7.97;2.75;;;;;;;25.63;35.36;101545.25;4973409;28;20031;-86
2022/06/20 10:25:10;;;;;;;10.47;3.00;;;;;;;25.63;34.67;101558.84;4965436;28;20035;-84
2022/06/20 10:28:06;;;;;;;10.63;3.22;;;;;;;25.25;36.42;101553.75;4940320;28;20061;-84
2022/06/20 10:30:44;;;;;;;8.50;2.65;;;;;;;25.16;36.62;101557.63;4976232;28;20056;-84
2022/06/20 10:33:31;;;;;;;9.32;2.92;;;;;;;25.44;37.77;101554.94;4978203;28;20349;-84
2022/06/20 10:36:10;;;;;;;5.90;2.70;;;;;;;25.81;36.45;101562.91;4985419;28;20073;-83
2022/06/20 10:38:54;;;;;;;8.75;3.33;;;;;;;26.12;36.71;101565.19;4972698;28;20035;-84
2022/06/20 10:41:39;;;;;;;5.55;2.35;;;;;;;26.04;34.31;101559.91;4974161;28;20394;-81
2022/06/20 10:44:25;;;;;;;4.43;2.17;;;;;;;26.36;34.75;101566.53;4964091;28;20475;-85
2022/06/20 10:47:09;;;;;;;8.95;2.70;;;;;;;26.30;34.30;101569.25;4973091;28;20034;-84
2022/06/20 10:50:01;;;;;;;6.40;2.70;;;;;;;26.60;34.98;101572.47;4970272;28;20027;-84
2022/06/20 10:52:32;;;;;;;6.43;2.30;;;;;;;26.40;33.17;101569.69;4966915;28;20078;-83
2022/06/20 10:55:11;;;;;;;6.60;2.58;;;;;;;26.30;33.99;101583.69;4976032;28;20375;-84
2022/06/20 10:57:46;;;;;;;8.40;2.80;;;;;;;26.09;34.75;101581.91;4967784;28;20504;-79
2022/06/20 11:00:17;;;;;;;7.28;2.45;;;;;;;26.04;33.57;101587.13;4976903;28;20111;-79
2022/06/20 11:03:10;;;;;;;5.93;2.45;;;;;;;26.36;34.17;101582.00;4975947;28;20117;-79
2022/06/20 11:06:02;;;;;;;8.25;2.78;;;;;;;26.73;34.93;101585.28;4976945;28;20034;-78
2022/06/20 11:08:42;;;;;;;9.48;3.00;;;;;;;26.59;33.79;101589.84;4960553;28;20034;-80
2022/06/20 11:11:38;;;;;;;8.15;3.05;;;;;;;26.28;34.99;101587.66;4974541;28;20065;-83
2022/06/20 11:14:35;;;;;;;7.22;2.42;;;;;;;26.12;34.41;101583.41;4976351;28;20102;-84
2022/06/20 11:17:22;;;;;;;7.07;2.53;;;;;;;26.13;34.02;101598.69;4977719;28;20069;-83
2022/06/20 11:20:10;;;;;;;6.15;2.60;;;;;;;26.21;34.08;101593.94;4965597;28;20367;-84
2022/06/20 11:22:43;;;;;;;8.10;3.15;;;;;;;26.26;33.12;101597.91;4973868;28;20033;-84
2022/06/20 11:25:30;;;;;;;7.50;2.67;;;;;;;26.58;34.32;101591.72;4959323;28;20029;-83
2022/06/20 11:28:13;;;;;;;6.93;2.63;;;;;;;26.54;34.25;101584.16;4978416;28;20486;-85
2022/06/20 11:31:10;;;;;;;6.18;2.53;;;;;;;26.45;34.19;101577.25;4968352;28;20086;-84
2022/06/20 11:34:02;;;;;;;8.70;2.95;;;;;;;26.59;34.79;101598.00;4977220;28;20157;-84
2022/06/20 11:36:33;;;;;;;9.50;2.97;;;;;;;26.74;34.86;101586.97;4972222;28;20055;-84
2022/06/20 11:39:11;;;;;;;7.72;2.67;;;;;;;26.61;34.62;101590.47;4975065;28;20027;-84
2022/06/20 11:41:47;;;;;;;9.32;2.67;;;;;;;26.86;34.04;101588.06;4970092;28;20022;-83
2022/06/20 11:44:35;;;;;;;13.13;3.55;;;;;;;27.05;32.82;101585.53;4972630;28;20035;-81
2022/06/20 11:47:18;;;;;;;8.18;2.50;;;;;;;26.83;32.87;101591.19;4970365;28;20038;-81
2022/06/20 11:50:08;;;;;;;7.78;3.03;;;;;;;26.94;34.21;101587.81;4967130;28;20113;-81
2022/06/20 11:52:56;;;;;;;5.38;2.28;;;;;;;27.17;33.51;101574.84;4957741;28;20135;-81
2022/06/20 11:55:43;;;;;;;5.65;2.25;;;;;;;27.19;34.07;101580.91;4982098;28;20117;-83
2022/06/20 11:58:32;;;;;;;8.60;2.22;;;;;;;27.43;33.03;101584.91;4971198;28;20407;-85
2022/06/20 12:01:11;;;;;;;6.30;2.42;;;;;;;27.44;31.70;101587.44;4966348;28;20037;-85
2022/06/20 12:03:46;;;;;;;6.18;2.28;;;;;;;27.42;30.25;101578.63;4980780;28;20054;-84
2022/06/20 12:06:30;;;;;;;4.55;2.05;;;;;;;27.53;31.24;101584.47;4989334;28;20035;-84
2022/06/20 12:09:15;;;;;;;6.55;2.08;;;;;;;27.29;32.16;101586.81;4977167;28;20027;-82
2022/06/20 12:11:52;;;;;;;9.10;2.35;;;;;;;27.27;31.81;101587.00;4976205;28;20492;-83
2022/06/20 12:14:47;;;;;;;6.40;1.83;;;;;;;27.32;32.25;101587.22;4975726;28;20031;-82
2022/06/20 12:17:31;;;;;;;3.50;1.83;;;;;;;27.38;30.54;101581.97;4954719;28;20050;-83
2022/06/20 12:25:58;;;;;;;6.38;2.20;;;;;;;27.00;32.18;101574.44;4967831;28;20077;-82